Time;durP1;ratioP1;P1;durP2;ratioP2;P2;SDS_P1;SDS_P2;PMS_P1;PMS_P2;Temp;Humidity;BMP_temperature;BMP_pressure;BME280_temperature;BME280_humidity;BME280_pressure;Samples;Min_cycle;Max_cycle;Signal;HPM_P1;HPM_P2
2021/07/25 00:00:40;;;;;;;;;;;24.00;69.10;;;;;;4975262;28;20117;-63
2021/07/25 00:03:08;;;;;;;9.00;8.05;;;24.10;80.20;;;;;;4974673;28;19906;-64
2021/07/25 00:05:33;;;;;;;9.70;8.18;;;24.10;93.90;;;;;;4974686;28;20057;-63
2021/07/25 00:07:59;;;;;;;8.88;7.80;;;24.00;93.60;;;;;;4974548;28;20066;-64
2021/07/25 00:10:25;;;;;;;9.13;8.23;;;23.60;93.20;;;;;;4974622;28;20031;-63
2021/07/25 00:12:51;;;;;;;9.15;7.78;;;24.10;93.10;;;;;;4974788;28;20015;-64
2021/07/25 00:15:17;;;;;;;10.25;8.40;;;24.10;93.50;;;;;;4974511;28;20486;-63
2021/07/25 00:17:42;;;;;;;10.27;8.05;;;24.20;94.90;;;;;;4974722;28;20083;-63
2021/07/25 00:20:09;;;;;;;11.68;7.90;;;24.20;95.10;;;;;;4974314;28;20034;-63
2021/07/25 00:22:34;;;;;;;8.80;7.88;;;24.10;95.10;;;;;;4974502;28;20057;-63
2021/07/25 00:25:09;;;;;;;9.32;8.00;;;;;;;;;;4974273;28;20486;-63
2021/07/25 00:27:40;;;;;;;8.60;7.80;;;24.00;67.70;;;;;;4974457;28;20051;-63
2021/07/25 00:30:08;;;;;;;8.90;7.60;;;24.10;94.80;;;;;;4974062;28;20038;-63
2021/07/25 00:32:34;;;;;;;8.23;7.40;;;23.70;81.70;;;;;;4974503;28;20031;-64
2021/07/25 00:34:59;;;;;;;9.27;7.78;;;23.90;81.20;;;;;;4974213;28;20509;-64
2021/07/25 00:37:25;;;;;;;10.40;8.20;;;24.00;94.80;;;;;;4974145;28;20066;-64
2021/07/25 00:39:50;;;;;;;8.88;7.38;;;24.10;94.80;;;;;;4974109;28;20031;-64
2021/07/25 00:42:16;;;;;;;8.32;7.53;;;24.00;93.90;;;;;;4974004;28;20023;-64
2021/07/25 00:44:41;;;;;;;8.43;7.47;;;23.60;93.40;;;;;;4974028;28;20030;-64
2021/07/25 00:47:07;;;;;;;8.98;7.57;;;;;;;;;;4973996;28;20435;-49
2021/07/25 00:49:35;;;;;;;9.38;7.75;;;24.00;93.90;;;;;;4973941;28;20074;-50
2021/07/25 00:52:04;;;;;;;8.63;7.68;;;;;;;;;;4973782;28;20027;-49
2021/07/25 00:54:29;;;;;;;9.55;7.63;;;24.10;93.50;;;;;;4973775;28;20038;-48
2021/07/25 00:56:55;;;;;;;8.60;7.70;;;;;;;;;;4973785;28;20479;-48
2021/07/25 00:59:21;;;;;;;8.38;7.45;;;24.10;94.90;;;;;;4973721;28;20030;-49
2021/07/25 01:01:49;;;;;;;8.15;6.88;;;23.60;95.30;;;;;;4973733;28;20027;-49
2021/07/25 01:04:36;;;;;;;8.25;6.78;;;24.00;95.50;;;;;;4973905;28;20050;-49
2021/07/25 01:07:20;;;;;;;7.82;6.55;;;24.00;93.10;;;;;;4973653;28;20114;-49
2021/07/25 01:10:15;;;;;;;8.10;7.30;;;24.20;94.20;;;;;;4973662;28;20027;-49
2021/07/25 01:13:10;;;;;;;8.90;7.10;;;23.90;93.80;;;;;;4957094;28;20035;-48
2021/07/25 01:15:39;;;;;;;8.45;7.60;;;24.10;85.40;;;;;;4972966;28;20051;-50
2021/07/25 01:18:04;;;;;;;9.73;7.25;;;24.00;95.00;;;;;;4973493;28;20023;-49
2021/07/25 01:20:30;;;;;;;7.75;6.70;;;24.10;95.40;;;;;;4973497;28;20094;-50
2021/07/25 01:22:58;;;;;;;8.10;7.22;;;23.70;95.20;;;;;;4973493;28;20018;-48
2021/07/25 01:25:25;;;;;;;7.90;7.10;;;24.10;94.40;;;;;;4973422;28;20019;-49
2021/07/25 01:28:06;;;;;;;7.80;7.07;;;23.80;95.20;;;;;;4973412;28;20549;-50
2021/07/25 01:30:36;;;;;;;7.85;6.68;;;23.90;67.70;;;;;;4972595;28;20047;-49
2021/07/25 01:33:07;;;;;;;8.65;7.18;;;23.90;68.70;;;;;;4973372;28;20026;-49
2021/07/25 01:35:34;;;;;;;8.25;7.25;;;23.90;94.70;;;;;;4973271;28;20094;-50
2021/07/25 01:38:00;;;;;;;8.30;7.30;;;24.10;94.80;;;;;;4973242;28;20505;-50
2021/07/25 01:40:26;;;;;;;7.97;6.30;;;23.70;90.10;;;;;;4956029;28;20031;-49
2021/07/25 01:42:56;;;;;;;7.78;6.15;;;23.70;76.70;;;;;;4973347;28;20475;-49
2021/07/25 01:45:22;;;;;;;7.90;6.85;;;23.90;94.10;;;;;;4973202;28;20030;-49
2021/07/25 01:47:48;;;;;;;7.88;6.35;;;;;;;;;;4973556;28;20391;-49
2021/07/25 01:50:14;;;;;;;8.25;7.10;;;24.10;73.70;;;;;;4973184;28;20031;-49
2021/07/25 01:52:42;;;;;;;7.80;6.85;;;24.00;95.50;;;;;;4973486;28;20031;-49
2021/07/25 01:55:08;;;;;;;8.63;6.50;;;23.80;67.50;;;;;;4973090;28;20475;-50
2021/07/25 01:57:34;;;;;;;7.20;6.47;;;23.90;70.20;;;;;;4973091;28;20027;-49
2021/07/25 02:00:00;;;;;;;7.00;6.28;;;24.00;93.70;;;;;;4973189;28;20035;-49
2021/07/25 02:02:25;;;;;;;7.32;6.43;;;23.70;93.50;;;;;;4973042;28;20475;-49
2021/07/25 02:04:51;;;;;;;6.70;6.10;;;23.70;94.70;;;;;;4973156;28;20486;-49
2021/07/25 02:07:16;;;;;;;6.78;6.18;;;23.60;94.60;;;;;;4973061;28;20027;-49
2021/07/25 02:09:42;;;;;;;7.10;5.97;;;23.60;93.50;;;;;;4973584;28;20019;-49
2021/07/25 02:12:11;;;;;;;7.10;6.40;;;23.60;89.50;;;;;;4973011;28;20027;-49
2021/07/25 02:14:38;;;;;;;7.25;6.55;;;23.80;94.40;;;;;;4972922;28;20051;-49
2021/07/25 02:17:05;;;;;;;7.10;6.40;;;24.00;88.30;;;;;;4973058;28;20059;-49
2021/07/25 02:19:31;;;;;;;6.88;6.22;;;24.00;93.30;;;;;;4972986;28;20027;-50
2021/07/25 02:21:57;;;;;;;9.07;6.43;;;23.90;95.40;;;;;;4955845;28;20054;-50
2021/07/25 02:24:23;;;;;;;6.85;6.15;;;23.90;94.30;;;;;;4972993;28;20023;-49
2021/07/25 02:26:49;;;;;;;6.95;6.18;;;23.50;94.00;;;;;;4972947;28;20030;-48
2021/07/25 02:29:15;;;;;;;7.05;6.03;;;23.90;93.10;;;;;;4972654;28;20042;-49
2021/07/25 02:31:41;;;;;;;6.15;5.60;;;23.90;93.80;;;;;;4972917;28;20034;-50
2021/07/25 02:34:06;;;;;;;6.82;5.78;;;23.70;93.90;;;;;;4972770;28;20027;-49
2021/07/25 02:36:32;;;;;;;6.97;6.28;;;23.90;94.00;;;;;;4972914;28;20391;-49
2021/07/25 02:38:57;;;;;;;6.15;5.55;;;23.80;92.80;;;;;;4972875;28;20019;-48
2021/07/25 02:41:23;;;;;;;6.82;5.72;;;23.70;93.60;;;;;;4972761;28;20483;-51
2021/07/25 02:43:49;;;;;;;6.50;5.90;;;23.80;93.80;;;;;;4975643;28;20483;-49
2021/07/25 02:46:15;;;;;;;7.82;6.00;;;;;;;;;;4976457;28;20170;-49
2021/07/25 02:48:40;;;;;;;7.47;5.88;;;23.80;93.20;;;;;;4976097;28;20081;-49
2021/07/25 02:51:06;;;;;;;6.50;5.85;;;23.90;93.50;;;;;;4976394;28;20383;-48
2021/07/25 02:53:32;;;;;;;8.90;6.30;;;23.90;94.80;;;;;;4976009;28;20109;-50
2021/07/25 02:55:57;;;;;;;6.15;5.55;;;23.70;92.90;;;;;;4975940;28;20093;-49
2021/07/25 02:58:23;;;;;;;6.38;5.75;;;23.70;93.30;;;;;;4976223;28;20022;-48
2021/07/25 03:00:49;;;;;;;6.10;5.50;;;23.90;93.60;;;;;;4975941;28;20483;-49
2021/07/25 03:03:14;;;;;;;5.93;5.32;;;23.90;95.00;;;;;;4975931;28;20070;-49
2021/07/25 03:05:40;;;;;;;6.88;5.35;;;23.90;93.60;;;;;;4975796;28;20051;-48
2021/07/25 03:08:06;;;;;;;7.00;5.78;;;23.90;94.50;;;;;;4975794;28;20074;-51
2021/07/25 03:10:32;;;;;;;8.57;6.45;;;;;;;;;;4975826;28;20529;-49
2021/07/25 03:12:57;;;;;;;7.72;6.32;;;23.70;94.40;;;;;;4975738;28;20025;-50
2021/07/25 03:15:23;;;;;;;6.93;5.45;;;23.70;96.20;;;;;;4975668;28;20031;-49
2021/07/25 03:17:49;;;;;;;6.35;5.75;;;23.70;94.40;;;;;;4975614;28;20520;-50
2021/07/25 03:20:14;;;;;;;6.68;5.60;;;23.30;94.40;;;;;;4975571;28;20030;-50
2021/07/25 03:22:41;;;;;;;5.72;5.22;;;23.50;94.50;;;;;;4975707;28;20038;-49
2021/07/25 03:25:07;;;;;;;5.22;4.72;;;23.70;94.20;;;;;;4975724;28;20050;-49
2021/07/25 03:27:32;;;;;;;5.55;5.05;;;;;;;;;;4958004;28;20073;-49
2021/07/25 03:29:58;;;;;;;5.88;5.38;;;23.80;91.60;;;;;;4975171;28;20043;-49
2021/07/25 03:32:24;;;;;;;5.50;4.82;;;;;;;;;;4975371;28;20049;-50
2021/07/25 03:34:50;;;;;;;5.93;5.40;;;23.80;93.30;;;;;;4975149;28;20065;-50
2021/07/25 03:37:17;;;;;;;6.75;4.95;;;;;;;;;;4975239;28;20019;-48
2021/07/25 03:39:45;;;;;;;6.43;5.00;;;23.40;93.90;;;;;;4975187;28;20486;-50
2021/07/25 03:42:11;;;;;;;6.45;4.90;;;23.70;95.70;;;;;;4975443;28;20026;-50
2021/07/25 03:44:38;;;;;;;5.38;4.88;;;23.80;86.00;;;;;;4975144;28;20023;-49
2021/07/25 03:47:04;;;;;;;6.03;5.43;;;23.40;74.40;;;;;;4975345;28;20327;-50
2021/07/25 03:49:30;;;;;;;6.47;5.30;;;23.80;94.40;;;;;;4975170;28;20110;-49
2021/07/25 03:51:56;;;;;;;5.30;4.80;;;23.40;94.20;;;;;;4974971;28;20034;-50
2021/07/25 03:54:22;;;;;;;5.60;5.03;;;23.50;92.60;;;;;;4974682;28;20386;-49
2021/07/25 03:56:48;;;;;;;5.45;4.90;;;;;;;;;;4974840;28;20031;-48
2021/07/25 03:59:13;;;;;;;5.32;4.68;;;23.30;93.90;;;;;;4974871;28;20096;-49
2021/07/25 04:01:39;;;;;;;6.47;4.90;;;23.50;94.00;;;;;;4975026;28;20031;-49
2021/07/25 04:04:05;;;;;;;4.65;4.15;;;;;;;;;;4974974;28;20022;-49
2021/07/25 04:06:31;;;;;;;4.68;4.28;;;23.60;93.90;;;;;;4974747;28;20092;-49
2021/07/25 04:08:57;;;;;;;4.90;4.38;;;23.80;96.20;;;;;;4974743;28;20063;-49
2021/07/25 04:11:23;;;;;;;5.15;4.65;;;23.50;94.30;;;;;;4974629;28;20019;-50
2021/07/25 04:13:48;;;;;;;6.93;4.90;;;23.70;94.60;;;;;;4974536;28;20593;-50
2021/07/25 04:16:14;;;;;;;6.18;5.28;;;23.70;94.40;;;;;;4974411;28;20089;-50
2021/07/25 04:18:40;;;;;;;5.40;4.32;;;23.70;94.10;;;;;;4974384;28;20022;-49
2021/07/25 04:21:06;;;;;;;5.20;4.70;;;23.80;94.50;;;;;;4974441;28;20046;-50
2021/07/25 04:23:31;;;;;;;6.90;5.05;;;;;;;;;;4974411;28;20023;-49
2021/07/25 04:25:58;;;;;;;6.07;5.20;;;;;;;;;;4974288;28;20035;-48
2021/07/25 04:28:24;;;;;;;5.18;4.60;;;;;;;;;;4974335;28;20479;-49
2021/07/25 04:30:50;;;;;;;4.80;4.35;;;;;;;;;;4974018;28;20066;-49
2021/07/25 04:33:17;;;;;;;6.07;4.70;;;23.70;94.00;;;;;;4974172;28;20045;-49
2021/07/25 04:35:43;;;;;;;5.70;4.70;;;24.00;94.10;;;;;;4974346;28;20118;-49
2021/07/25 04:38:09;;;;;;;4.80;4.30;;;23.80;95.00;;;;;;4974077;28;20078;-48
2021/07/25 04:40:35;;;;;;;5.35;4.50;;;23.70;94.30;;;;;;4974323;28;20031;-49
2021/07/25 04:43:03;;;;;;;5.57;4.22;;;23.50;93.40;;;;;;4974249;28;20027;-49
2021/07/25 04:45:48;;;;;;;4.53;4.10;;;23.70;94.70;;;;;;4974038;28;20030;-49
2021/07/25 04:48:34;;;;;;;4.80;4.30;;;23.70;93.40;;;;;;4973975;28;20031;-48
2021/07/25 04:51:06;;;;;;;4.82;4.30;;;23.80;93.30;;;;;;4973865;28;20039;-49
2021/07/25 04:53:38;;;;;;;4.55;4.15;;;23.50;68.60;;;;;;4974134;28;20109;-50
2021/07/25 04:56:06;;;;;;;5.63;4.28;;;23.60;93.40;;;;;;4973917;28;20042;-50
2021/07/25 04:58:40;;;;;;;5.03;4.18;;;23.70;93.90;;;;;;4973744;28;20030;-49
2021/07/25 05:01:06;;;;;;;4.75;4.35;;;;;;;;;;4973928;28;20073;-49
2021/07/25 05:03:33;;;;;;;4.88;4.38;;;23.50;70.40;;;;;;4974006;28;20078;-49
2021/07/25 05:06:00;;;;;;;5.50;3.92;;;23.20;93.70;;;;;;4972912;28;20089;-64
2021/07/25 05:08:26;;;;;;;4.22;3.83;;;;;;;;;;4973863;28;20368;-63
2021/07/25 05:11:02;;;;;;;4.25;3.85;;;23.60;66.90;;;;;;4973631;28;20042;-63
2021/07/25 05:13:34;;;;;;;4.13;3.72;;;23.70;95.10;;;;;;4973661;28;20050;-64
2021/07/25 05:16:05;;;;;;;5.35;4.40;;;23.50;68.30;;;;;;4973750;28;20446;-64
2021/07/25 05:18:39;;;;;;;4.55;3.85;;;23.10;94.70;;;;;;4973877;28;20101;-64
2021/07/25 05:21:24;;;;;;;4.28;3.88;;;23.80;93.50;;;;;;4973846;28;20023;-64
2021/07/25 05:23:54;;;;;;;5.80;4.15;;;23.50;71.60;;;;;;4973526;28;20078;-64
2021/07/25 05:26:25;;;;;;;4.40;4.00;;;23.70;94.40;;;;;;4973381;28;20037;-64
2021/07/25 05:28:56;;;;;;;4.20;3.80;;;23.60;66.00;;;;;;4973452;28;20023;-63
2021/07/25 05:31:29;;;;;;;4.95;3.97;;;23.40;94.00;;;;;;4973257;28;20074;-64
2021/07/25 05:33:54;;;;;;;4.35;3.88;;;23.80;92.70;;;;;;4973951;28;20390;-64
2021/07/25 05:36:20;;;;;;;5.28;3.90;;;23.20;93.20;;;;;;4973207;28;20038;-64
2021/07/25 05:38:45;;;;;;;4.50;4.10;;;23.80;92.60;;;;;;4973333;28;20027;-64
2021/07/25 05:41:11;;;;;;;4.03;3.72;;;;;;;;;;4973356;28;20139;-63
2021/07/25 05:43:37;;;;;;;4.43;4.00;;;23.70;92.50;;;;;;4973292;28;20078;-63
2021/07/25 05:46:02;;;;;;;5.43;3.63;;;23.70;92.30;;;;;;4973205;28;20038;-63
2021/07/25 05:48:28;;;;;;;4.35;3.95;;;23.70;92.90;;;;;;4973193;28;20026;-64
2021/07/25 05:50:54;;;;;;;4.03;3.70;;;;;;;;;;4973519;28;20077;-63
2021/07/25 05:53:19;;;;;;;4.22;3.83;;;23.70;92.60;;;;;;4973138;28;20111;-64
2021/07/25 05:55:45;;;;;;;4.03;3.58;;;23.80;93.60;;;;;;4973212;28;20035;-65
2021/07/25 05:58:10;;;;;;;4.07;3.67;;;23.60;81.60;;;;;;4973215;28;20502;-64
2021/07/25 06:00:36;;;;;;;4.43;3.70;;;23.60;94.00;;;;;;4973525;28;20033;-63
2021/07/25 06:03:03;;;;;;;4.20;3.80;;;23.90;94.20;;;;;;4973333;28;20102;-64
2021/07/25 06:05:31;;;;;;;3.40;3.13;;;23.50;93.80;;;;;;4973118;28;20033;-64
2021/07/25 06:07:58;;;;;;;4.45;3.88;;;23.30;93.80;;;;;;4973113;28;20035;-64
2021/07/25 06:10:27;;;;;;;25.48;4.10;;;23.90;93.80;;;;;;4973000;28;20030;-63
2021/07/25 06:12:53;;;;;;;4.33;3.67;;;23.90;94.20;;;;;;4973319;28;20127;-64
2021/07/25 06:15:20;;;;;;;4.97;3.63;;;23.60;93.70;;;;;;4972926;28;20114;-64
2021/07/25 06:17:46;;;;;;;3.80;3.47;;;;;;;;;;4975809;28;20026;-64
2021/07/25 06:20:12;;;;;;;3.83;3.42;;;23.20;66.20;;;;;;4976694;28;20054;-64
2021/07/25 06:22:43;;;;;;;6.85;3.55;;;23.60;66.10;;;;;;4976617;28;20103;-63
2021/07/25 06:25:11;;;;;;;4.43;3.15;;;23.50;94.50;;;;;;4976595;28;20031;-64
2021/07/25 06:27:37;;;;;;;4.50;3.25;;;23.60;94.20;;;;;;4976514;28;20113;-64
2021/07/25 06:30:04;;;;;;;4.07;3.63;;;23.80;94.10;;;;;;4976320;28;20547;-63
2021/07/25 06:32:30;;;;;;;4.65;3.80;;;23.50;93.10;;;;;;4976893;28;20352;-64
2021/07/25 06:34:56;;;;;;;4.72;3.45;;;;;;;;;;4976649;28;20037;-64
2021/07/25 06:37:21;;;;;;;3.88;3.40;;;23.70;93.20;;;;;;4976371;28;20115;-64
2021/07/25 06:39:47;;;;;;;3.40;2.95;;;23.70;94.30;;;;;;4976399;28;20035;-65
2021/07/25 06:42:12;;;;;;;4.75;3.58;;;23.30;94.10;;;;;;4976264;28;20058;-65
2021/07/25 06:44:38;;;;;;;3.80;3.33;;;23.70;94.30;;;;;;4976545;28;20031;-65
2021/07/25 06:47:03;;;;;;;5.00;3.28;;;23.80;81.10;;;;;;4976211;28;20021;-65
2021/07/25 06:49:29;;;;;;;3.25;2.95;;;23.60;93.50;;;;;;4976095;28;20039;-65
2021/07/25 06:51:55;;;;;;;4.00;2.92;;;23.80;94.80;;;;;;4976136;28;20023;-65
2021/07/25 06:54:20;;;;;;;3.50;3.10;;;23.70;94.70;;;;;;4976013;28;20111;-65
2021/07/25 06:56:46;;;;;;;3.95;3.40;;;23.20;93.50;;;;;;4976066;28;20059;-65
2021/07/25 06:59:11;;;;;;;4.20;3.38;;;23.70;94.40;;;;;;4976002;28;20043;-65
2021/07/25 07:01:37;;;;;;;3.42;3.13;;;23.30;94.50;;;;;;4975887;28;20085;-65
2021/07/25 07:04:02;;;;;;;3.67;3.38;;;23.50;93.50;;;;;;4975912;28;20031;-65
2021/07/25 07:06:28;;;;;;;3.58;3.28;;;23.60;92.30;;;;;;4975732;28;20122;-65
2021/07/25 07:08:54;;;;;;;4.40;3.10;;;;;;;;;;4975700;28;20077;-65
2021/07/25 07:11:26;;;;;;;3.35;3.05;;;23.60;67.50;;;;;;4975945;28;20090;-65
2021/07/25 07:13:54;;;;;;;3.85;3.45;;;;;;;;;;4975578;28;20103;-65
2021/07/25 07:16:20;;;;;;;3.45;3.13;;;23.60;94.20;;;;;;4975656;28;20046;-65
2021/07/25 07:18:45;;;;;;;3.53;3.20;;;23.60;93.40;;;;;;4975487;28;20023;-65
2021/07/25 07:21:11;;;;;;;3.53;3.00;;;23.30;94.00;;;;;;4975559;28;20031;-65
2021/07/25 07:23:37;;;;;;;4.25;3.42;;;23.80;92.80;;;;;;4975376;28;20030;-64
2021/07/25 07:26:02;;;;;;;4.43;3.08;;;23.70;92.90;;;;;;4975357;28;20034;-64
2021/07/25 07:28:28;;;;;;;3.80;2.80;;;;;;;;;;4974400;28;20049;-65
2021/07/25 07:31:18;;;;;;;5.40;3.28;;;23.80;92.80;;;;;;4975020;28;20070;-65
2021/07/25 07:33:44;;;;;;;;;;;23.70;66.10;;;;;;4975550;28;20034;-64
2021/07/25 07:36:11;;;;;;;5.50;3.15;;;;;;;;;;4975092;28;20285;-65
2021/07/25 07:38:37;;;;;;;8.60;3.40;;;23.70;94.30;;;;;;4975164;28;20430;-64
2021/07/25 07:41:02;;;;;;;5.85;2.97;;;23.90;93.80;;;;;;4975185;28;20105;-65
2021/07/25 07:43:28;;;;;;;5.40;3.45;;;23.90;86.30;;;;;;4975189;28;20030;-64
2021/07/25 07:45:54;;;;;;;6.18;3.28;;;;;;;;;;4975084;28;20026;-65
2021/07/25 07:48:21;;;;;;;4.63;3.55;;;;;;;;;;4975258;28;20061;-65
2021/07/25 07:50:47;;;;;;;3.80;3.40;;;23.50;94.30;;;;;;4975318;28;20034;-66
2021/07/25 07:53:13;;;;;;;3.78;2.95;;;23.80;94.50;;;;;;4974973;28;20379;-66
2021/07/25 07:55:38;;;;;;;10.02;3.20;;;23.90;94.80;;;;;;4975131;28;20086;-66
2021/07/25 07:58:04;;;;;;;5.22;3.83;;;24.00;95.10;;;;;;4974803;28;20058;-66
2021/07/25 08:00:30;;;;;;;4.65;3.22;;;;;;;;;;4975024;28;20114;-66
2021/07/25 08:02:56;;;;;;;4.53;2.83;;;23.90;69.60;;;;;;4974783;28;20023;-66
2021/07/25 08:05:22;;;;;;;4.50;3.05;;;;;;;;;;4974987;28;20402;-66
2021/07/25 08:07:49;;;;;;;5.32;3.30;;;23.90;68.00;;;;;;4974703;28;20098;-66
2021/07/25 08:10:15;;;;;;;6.50;3.30;;;23.60;95.10;;;;;;4974710;28;20042;-66
2021/07/25 08:12:41;;;;;;;5.63;3.30;;;24.00;82.40;;;;;;4974460;28;20110;-66
2021/07/25 08:15:09;;;;;;;4.97;3.40;;;23.80;87.60;;;;;;4974708;28;20431;-66
2021/07/25 08:17:35;;;;;;;5.03;3.42;;;23.90;94.40;;;;;;4974651;28;20054;-67
2021/07/25 08:20:01;;;;;;;5.35;3.70;;;23.90;68.90;;;;;;4974351;28;20035;-67
2021/07/25 08:22:27;;;;;;;5.78;3.38;;;;;;;;;;4974349;28;20114;-67
2021/07/25 08:24:53;;;;;;;4.85;2.95;;;;;;;;;;4974050;28;20105;-67
2021/07/25 08:27:19;;;;;;;5.38;3.08;;;24.00;95.40;;;;;;4974263;28;20041;-67
2021/07/25 08:29:44;;;;;;;5.30;3.35;;;23.90;94.70;;;;;;4973903;28;20118;-67
2021/07/25 08:32:10;;;;;;;5.95;3.67;;;24.10;95.60;;;;;;4974162;28;20380;-67
2021/07/25 08:34:37;;;;;;;4.82;3.17;;;24.10;94.50;;;;;;4974190;28;20042;-67
2021/07/25 08:37:02;;;;;;;6.25;3.22;;;24.00;94.10;;;;;;4974516;28;20479;-66
2021/07/25 08:39:28;;;;;;;3.28;2.90;;;24.20;94.10;;;;;;4974117;28;20053;-66
2021/07/25 08:41:54;;;;;;;5.10;3.13;;;;;;;;;;4974075;28;20054;-66
2021/07/25 08:44:46;;;;;;;4.22;3.20;;;24.10;94.20;;;;;;4974126;28;20027;-66
2021/07/25 08:47:25;;;;;;;4.40;3.30;;;23.90;95.00;;;;;;4974239;28;20031;-66
2021/07/25 08:49:56;;;;;;;5.90;3.58;;;24.20;94.90;;;;;;4973935;28;20542;-67
2021/07/25 08:52:47;;;;;;;5.45;3.40;;;24.20;94.00;;;;;;4973953;28;20027;-67
2021/07/25 08:55:17;;;;;;;3.53;3.17;;;24.00;94.80;;;;;;4973356;28;20099;-67
2021/07/25 08:57:45;;;;;;;4.93;3.17;;;24.10;93.70;;;;;;4973917;28;20030;-67
2021/07/25 09:00:13;;;;;;;5.13;2.92;;;24.20;94.50;;;;;;4973825;28;20042;-64
2021/07/25 09:02:39;;;;;;;4.13;2.92;;;24.30;93.70;;;;;;4973858;28;20286;-66
2021/07/25 09:05:07;;;;;;;4.05;3.08;;;24.20;94.40;;;;;;4973653;28;20603;-65
2021/07/25 09:11:07;;;;;;;2.80;2.60;;;24.20;93.60;;;;;;4980617;28;20037;-51
2021/07/25 09:16:54;;;;;;;2.63;2.42;;;24.10;94.20;;;;;;4973911;28;20509;-52
2021/07/25 09:19:20;;;;;;;3.15;2.65;;;24.70;94.10;;;;;;4973629;28;20026;-54
2021/07/25 09:21:50;;;;;;;3.17;2.70;;;24.80;94.20;;;;;;4973728;28;20385;-50
2021/07/25 09:24:34;;;;;;;7.75;2.65;;;24.20;94.00;;;;;;4973627;28;20023;-54
2021/07/25 09:27:02;;;;;;;3.33;2.42;;;24.80;94.40;;;;;;4973878;28;20360;-52
2021/07/25 09:29:36;;;;;;;3.35;2.85;;;24.40;93.40;;;;;;4973535;28;20037;-52
2021/07/25 09:32:11;;;;;;;2.63;2.30;;;24.80;67.30;;;;;;4973530;28;20031;-50
2021/07/25 09:34:42;;;;;;;4.60;2.78;;;24.70;67.30;;;;;;4973493;28;20035;-49
2021/07/25 09:37:08;;;;;;;5.53;2.65;;;24.90;94.20;;;;;;4973432;28;20023;-52
2021/07/25 09:39:54;;;;;;;3.78;2.70;;;24.90;93.50;;;;;;4973442;28;20031;-50
2021/07/25 09:42:30;;;;;;;6.05;3.10;;;24.90;94.10;;;;;;4973312;28;20509;-51
2021/07/25 09:48:33;;;;;;;4.13;2.90;;;24.90;94.00;;;;;;5019354;28;20036;-66
2021/07/25 09:51:23;;;;;;;7.35;3.10;;;24.60;83.10;;;;;;5012457;28;20092;-67
2021/07/25 09:53:52;;;;;;;4.25;2.55;;;24.80;94.00;;;;;;5011143;28;20046;-68
2021/07/25 09:56:26;;;;;;;3.53;2.97;;;25.10;93.50;;;;;;5016266;28;20064;-65
2021/07/25 09:58:52;;;;;;;4.55;2.80;;;24.70;94.90;;;;;;5016224;28;20030;-67
2021/07/25 10:01:38;;;;;;;4.80;2.67;;;24.50;82.80;;;;;;5015629;28;20033;-66
2021/07/25 10:04:21;;;;;;;3.85;2.88;;;24.90;93.40;;;;;;5014302;28;20022;-66
2021/07/25 10:10:14;;;;;;;3.55;2.80;;;25.30;93.20;;;;;;5023043;28;20056;-60
2021/07/25 10:12:41;;;;;;;4.18;2.60;;;25.20;67.10;;;;;;5016138;28;20026;-60
2021/07/25 10:15:09;;;;;;;5.55;3.50;;;24.50;93.30;;;;;;5015908;28;20445;-60
2021/07/25 10:17:37;;;;;;;11.85;3.53;;;25.10;92.90;;;;;;5067775;23;20129;-44
2021/07/25 10:40:53;;;;;;;5.13;2.80;;;25.50;93.00;;;;;;5022271;28;20378;-44
2021/07/25 10:50:07;;;;;;;4.45;3.35;;;25.50;92.80;;;;;;5015602;28;20057;-48
2021/07/25 10:52:55;;;;;;;6.75;3.08;;;25.10;94.10;;;;;;5015626;28;20029;-49
2021/07/25 10:55:37;;;;;;;4.15;3.13;;;25.60;93.30;;;;;;5008191;28;20048;-48
2021/07/25 10:58:20;;;;;;;4.53;3.22;;;25.50;94.00;;;;;;5015130;28;20026;-48
2021/07/25 11:00:55;;;;;;;5.43;3.03;;;25.80;72.00;;;;;;5015441;28;20101;-51
2021/07/25 11:03:30;;;;;;;7.45;3.42;;;25.40;94.90;;;;;;5013920;28;20029;-49
2021/07/25 11:06:02;;;;;;;4.03;3.20;;;25.60;67.30;;;;;;5014962;28;20034;-49
2021/07/25 11:08:35;;;;;;;5.10;2.53;;;25.40;62.90;;;;;;5014898;28;20391;-50
2021/07/25 11:11:01;;;;;;;3.30;2.75;;;24.90;92.90;;;;;;5014821;28;20088;-49
2021/07/25 11:13:40;;;;;;;4.43;3.25;;;25.50;94.70;;;;;;5014349;28;20026;-48
2021/07/25 11:16:29;;;;;;;4.17;2.80;;;25.30;94.40;;;;;;5014324;28;20065;-50
2021/07/25 11:18:55;;;;;;;3.47;2.72;;;25.60;94.60;;;;;;5014560;28;20092;-48
2021/07/25 11:21:31;;;;;;;7.03;3.08;;;25.50;93.10;;;;;;5014373;28;20036;-49
2021/07/25 11:23:57;;;;;;;6.90;3.35;;;;;;;;;;5014599;28;20026;-49
2021/07/25 11:26:35;;;;;;;3.95;2.90;;;25.40;92.80;;;;;;5014466;28;20037;-50
2021/07/25 11:29:06;;;;;;;6.50;2.72;;;25.70;92.90;;;;;;5014351;28;20491;-49
2021/07/25 11:31:36;;;;;;;3.95;2.90;;;25.60;88.50;;;;;;5014505;28;20022;-48
2021/07/25 12:01:23;;;;;;;3.90;2.40;;;25.50;62.20;;;;;;5013857;28;20559;-66
2021/07/25 12:03:49;;;;;;;3.15;2.75;;;25.60;94.80;;;;;;5013442;28;20049;-67
2021/07/25 12:06:17;;;;;;;3.78;3.00;;;25.60;69.50;;;;;;5013788;28;20030;-65
2021/07/25 12:09:04;;;;;;;3.17;2.42;;;25.80;95.10;;;;;;5013521;28;20393;-65
2021/07/25 12:11:30;;;;;;;4.28;2.72;;;;;;;;;;5013352;28;20025;-65
2021/07/25 12:13:56;;;;;;;4.28;2.47;;;25.70;73.90;;;;;;5013238;28;20030;-65
2021/07/25 12:16:22;;;;;;;4.20;2.22;;;;;;;;;;5013544;28;20034;-64
2021/07/25 12:18:48;;;;;;;3.63;2.53;;;;;;;;;;5012542;28;20088;-65
2021/07/25 12:21:32;;;;;;;4.15;2.63;;;25.50;62.60;;;;;;5011834;28;20458;-64
2021/07/25 12:23:59;;;;;;;5.63;2.38;;;25.60;71.90;;;;;;5013134;28;20041;-65
2021/07/25 12:26:40;;;;;;;4.10;2.25;;;25.50;65.20;;;;;;5013145;28;20017;-64
2021/07/25 12:29:34;;;;;;;5.20;2.38;;;25.60;63.70;;;;;;5015308;28;20037;-63
2021/07/25 12:32:00;;;;;;;2.30;2.10;;;;;;;;;;5013515;28;20034;-52
2021/07/25 12:34:26;;;;;;;2.80;2.28;;;;;;;;;;5013062;28;20034;-51
2021/07/25 12:36:52;;;;;;;4.45;2.45;;;;;;;;;;5013137;28;20119;-49
2021/07/25 12:39:18;;;;;;;3.05;2.30;;;;;;;;;;5013092;28;20033;-51
2021/07/25 12:41:44;;;;;;;3.20;2.38;;;;;;;;;;5013003;28;20481;-51
2021/07/25 12:44:10;;;;;;;4.70;2.55;;;;;;;;;;5013240;28;20022;-50
2021/07/25 12:46:36;;;;;;;2.30;1.90;;;;;;;;;;5012844;28;20076;-50
2021/07/25 12:49:05;;;;;;;4.10;2.72;;;26.10;72.30;;;;;;5013025;28;20030;-54
2021/07/25 12:51:43;;;;;;;4.20;2.65;;;26.00;66.60;;;;;;5012954;28;20120;-50
2021/07/25 12:54:09;;;;;;;3.15;2.20;;;;;;;;;;5012832;28;20093;-51
2021/07/25 12:56:35;;;;;;;2.67;1.80;;;;;;;;;;5012705;28;20129;-51
2021/07/25 12:59:05;;;;;;;3.63;2.42;;;26.20;72.10;;;;;;5012821;28;20105;-51
2021/07/25 13:04:05;;;;;;;2.13;1.92;;;26.30;71.60;;;;;;5012866;28;20284;-51
2021/07/25 13:06:31;;;;;;;2.70;1.90;;;26.10;68.00;;;;;;5012886;28;20025;-50
2021/07/25 13:09:05;;;;;;;6.05;2.33;;;26.40;91.80;;;;;;5012658;28;20034;-50
2021/07/25 13:11:33;;;;;;;6.45;2.10;;;26.30;71.40;;;;;;5012912;28;20026;-51
2021/07/25 13:14:04;;;;;;;2.30;2.10;;;26.10;96.10;;;;;;5012729;28;20026;-52
2021/07/25 13:16:30;;;;;;;3.90;2.30;;;;;;;;;;5011284;28;20037;-50
2021/07/25 13:19:00;;;;;;;2.53;1.80;;;26.30;70.80;;;;;;5010855;28;20369;-51
2021/07/25 13:21:27;;;;;;;;;;;26.90;71.90;;;;;;5011117;28;20022;-51
2021/07/25 13:23:53;;;;;;;2.72;2.13;;;;;;;;;;5010856;28;20400;-52
2021/07/25 13:26:19;;;;;;;2.50;2.30;;;;;;;;;;5009862;28;20054;-51
2021/07/25 13:28:46;;;;;;;4.03;1.88;;;;;;;;;;5010616;28;20040;-50
2021/07/25 13:31:12;;;;;;;3.17;2.00;;;;;;;;;;5011240;28;20391;-52
2021/07/25 13:33:38;;;;;;;2.35;1.90;;;;;;;;;;5012397;28;20057;-51
2021/07/25 13:36:06;;;;;;;2.20;1.88;;;26.40;70.80;;;;;;5012616;28;20066;-51
2021/07/25 13:38:35;;;;;;;3.83;2.17;;;26.50;70.90;;;;;;5012399;28;20105;-52
2021/07/25 13:41:01;;;;;;;2.70;2.00;;;;;;;;;;5012441;28;20049;-52
2021/07/25 13:43:27;;;;;;;2.88;1.85;;;26.80;96.00;;;;;;5012297;28;20482;-51
2021/07/25 13:46:03;;;;;;;3.45;2.08;;;26.60;69.80;;;;;;5012379;28;20026;-52
2021/07/25 13:48:38;;;;;;;1.98;1.77;;;26.50;70.40;;;;;;5012399;28;20054;-52
2021/07/25 13:51:12;;;;;;;2.33;2.00;;;26.60;65.20;;;;;;5012360;28;20076;-51
2021/07/25 13:53:39;;;;;;;2.10;1.85;;;26.50;70.30;;;;;;5012285;28;20034;-52
2021/07/25 13:56:09;;;;;;;2.08;1.75;;;26.60;70.60;;;;;;5012230;28;20049;-53
2021/07/25 13:58:35;;;;;;;1.85;1.60;;;26.40;68.30;;;;;;5012400;28;20014;-50
2021/07/25 14:01:01;;;;;;;2.92;2.00;;;;;;;;;;5012167;28;20084;-53
2021/07/25 14:03:27;;;;;;;1.98;1.75;;;;;;;;;;5012121;28;20030;-54
2021/07/25 14:05:53;;;;;;;1.67;1.52;;;26.70;96.60;;;;;;5012478;28;20029;-52
2021/07/25 14:08:19;;;;;;;2.67;1.90;;;;;;;;;;5012140;28;20104;-51
2021/07/25 14:10:45;;;;;;;2.00;1.85;;;26.80;96.40;;;;;;5012090;28;20034;-51
2021/07/25 14:13:11;;;;;;;2.83;2.00;;;;;;;;;;5012338;28;20032;-51
2021/07/25 14:15:37;;;;;;;2.95;1.52;;;;;;;;;;5012260;28;20038;-51
2021/07/25 14:18:04;;;;;;;2.28;1.75;;;26.50;70.70;;;;;;5012247;28;20026;-54
2021/07/25 14:20:32;;;;;;;1.90;1.50;;;26.60;70.70;;;;;;5012285;28;20373;-53
2021/07/25 14:22:59;;;;;;;2.05;1.65;;;;;;;;;;5012239;28;20107;-51
2021/07/25 14:25:25;;;;;;;2.30;1.60;;;26.60;69.80;;;;;;5012315;28;20061;-53